ADDS METAR Data

Data at: 0050 UTC 21 Nov 2017

METAR for:EGLF (Farnborough Arpt, --, UK)
Text:EGLF 202050Z 25011KT 230V290 9999 BKN012 12/11 Q1013
Temperature: 12.0°C ( 54°F)
Dewpoint: 11.0°C ( 52°F) [RH = 94%]
Pressure (altimeter):29.91 inches Hg (1013.0 mb)
Winds:from the WSW (250 degrees) at 13 MPH (11 knots; 5.7 m/s)
Visibility:6 or more sm (10+ km)
Ceiling:1200 feet AGL
Clouds: broken clouds at 1200 feet AGL

TAF for:EGLF (Farnborough Arpt, --, UK) issued at 1658 UTC 20 Nov 2017
Text:TAF EGLF 201658Z 2018/2022 24015KT 9999 BKN010
Forecast period:1800 to 2200 UTC 20 November 2017
Forecast type:FROM: standard forecast or significant change
Winds:from the WSW (240 degrees) at 17 MPH (15 knots; 7.7 m/s)
Visibility:6 or more sm (10+ km)
Ceiling:1000 feet AGL
Clouds: broken clouds at 1000 feet AGL
Text:TEMPO 2018/2022 4000 DZ BKN008
Forecast period:1800 to 2200 UTC 20 November 2017
Forecast type:TEMPORARY: The following changes expected for less than half the time period
Visibility: 2.49 sm ( 4.01 km)
Ceiling:800 feet AGL
Clouds: broken clouds at 800 feet AGL
Weather:DZ (moderate drizzle)

METAR for:EGUB (Benson(RAF), --, UK)
Text:EGUB 202350Z 23008KT 9999 OVC008 12/11 Q1013 GRN
Temperature: 12.0°C ( 54°F)
Dewpoint: 11.0°C ( 52°F) [RH = 94%]
Pressure (altimeter):29.91 inches Hg (1013.0 mb)
Winds:from the SW (230 degrees) at 9 MPH (8 knots; 4.1 m/s)
Visibility:6 or more sm (10+ km)
Ceiling:800 feet AGL
Clouds: overcast cloud deck at 800 feet AGL

TAF for:EGUB (Benson(RAF), --, UK) issued at 1937 UTC 20 Nov 2017
Text:TAF EGUB 201937Z 2021/2024 25010KT 9999 BKN010
Forecast period:2100 UTC 20 November 2017 to 0000 UTC 21 November 2017
Forecast type:FROM: standard forecast or significant change
Winds:from the WSW (250 degrees) at 12 MPH (10 knots; 5.1 m/s)
Visibility:6 or more sm (10+ km)
Ceiling:1000 feet AGL
Clouds: broken clouds at 1000 feet AGL
Text:TEMPO 2021/2024 5000 -RADZ
Forecast period:2100 UTC 20 November 2017 to 0000 UTC 21 November 2017
Forecast type:TEMPORARY: The following changes expected for less than half the time period
Visibility: 3 sm ( 5 km)
Clouds:missing
Weather:-RA -DZ (light rain, light drizzle)
Text:PROB30
Forecast period:2200 UTC 20 November 2017 to 0000 UTC 21 November 2017
Forecast type:TEMPORARY: The following changes expected for less than half the time period
Visibility: 2.49 sm ( 4.01 km)
Ceiling:600 feet AGL
Clouds: broken clouds at 600 feet AGL
Weather:DZ (moderate drizzle)

METAR for:EGVO (Odiham(RAF), --, UK)
Text:EGVO 202350Z 24013KT 9999 OVC007 12/11 Q1013 GRN
Temperature: 12.0°C ( 54°F)
Dewpoint: 11.0°C ( 52°F) [RH = 94%]
Pressure (altimeter):29.91 inches Hg (1013.0 mb)
Winds:from the WSW (240 degrees) at 15 MPH (13 knots; 6.7 m/s)
Visibility:6 or more sm (10+ km)
Ceiling:700 feet AGL
Clouds: overcast cloud deck at 700 feet AGL

TAF for:EGVO (Odiham(RAF), --, UK) issued at 1931 UTC 20 Nov 2017
Text:TAF EGVO 201931Z 2021/2109 25010KT 9999 BKN008
Forecast period:2100 UTC 20 November 2017 to 0900 UTC 21 November 2017
Forecast type:FROM: standard forecast or significant change
Winds:from the WSW (250 degrees) at 12 MPH (10 knots; 5.1 m/s)
Visibility:6 or more sm (10+ km)
Ceiling:800 feet AGL
Clouds: broken clouds at 800 feet AGL
Text:PROB30
Forecast period:2100 UTC 20 November 2017 to 0500 UTC 21 November 2017
Forecast type:TEMPORARY: The following changes expected for less than half the time period
Visibility: 2.49 sm ( 4.01 km)
Ceiling:500 feet AGL
Clouds: broken clouds at 500 feet AGL
Weather:-RA -DZ (light rain, light drizzle)
Text:TEMPO 2021/2105 4000 -RADZ BKN005
Forecast period:0700 to 0900 UTC 21 November 2017
Forecast type:TEMPORARY: The following changes expected for less than half the time period
Ceiling:at least 12,000 feet AGL
Clouds: few clouds at 800 feet AGL

METAR for:EGTK (Oxford Arpt, --, UK)
Text:EGTK 202220Z 24015KT 9999 BKN010 12/11 Q1012
Temperature: 12.0°C ( 54°F)
Dewpoint: 11.0°C ( 52°F) [RH = 94%]
Pressure (altimeter):29.88 inches Hg (1012.0 mb)
Winds:from the WSW (240 degrees) at 17 MPH (15 knots; 7.7 m/s)
Visibility:6 or more sm (10+ km)
Ceiling:1000 feet AGL
Clouds: broken clouds at 1000 feet AGL

TAF for:EGTK (Oxford Arpt, --, UK) issued at 1958 UTC 20 Nov 2017
Text:TAF EGTK 201958Z 2021/2023 22015KT 9999 SCT008
Forecast period:2100 to 2300 UTC 20 November 2017
Forecast type:FROM: standard forecast or significant change
Winds:from the SW (220 degrees) at 17 MPH (15 knots; 7.7 m/s)
Visibility:6 or more sm (10+ km)
Ceiling:at least 12,000 feet AGL
Clouds: scattered clouds at 800 feet AGL
Text:TEMPO 2021/2023 8000 -DZ BKN008
Forecast period:2100 to 2300 UTC 20 November 2017
Forecast type:TEMPORARY: The following changes expected for less than half the time period
Visibility: 5 sm ( 8 km)
Ceiling:800 feet AGL
Clouds: broken clouds at 800 feet AGL
Weather:-DZ (light drizzle)
Text:PROB30
Forecast period:2100 to 2300 UTC 20 November 2017
Forecast type:TEMPORARY: The following changes expected for less than half the time period
Visibility: 2.49 sm ( 4.01 km)
Ceiling:200 feet AGL
Clouds: broken clouds at 200 feet AGL
Weather:DZ (moderate drizzle)

METAR for:EGHH (Bournemouth Intl, --, UK)
Text:EGHH 202150Z 26012KT 9999 SCT013 BKN038 13/11 Q1015
Temperature: 13.0°C ( 55°F)
Dewpoint: 11.0°C ( 52°F) [RH = 88%]
Pressure (altimeter):29.97 inches Hg (1015.0 mb)
Winds:from the W (260 degrees) at 14 MPH (12 knots; 6.2 m/s)
Visibility:6 or more sm (10+ km)
Ceiling:3800 feet AGL
Clouds: scattered clouds at 1300 feet AGL, broken clouds at 3800 feet AGL

TAF for:EGHH (Bournemouth Intl, --, UK) issued at 2258 UTC 20 Nov 2017
Text:TAF EGHH 202258Z 2100/2109 24008KT 9999 SCT012
Forecast period:0000 to 0900 UTC 21 November 2017
Forecast type:FROM: standard forecast or significant change
Winds:from the WSW (240 degrees) at 9 MPH (8 knots; 4.1 m/s)
Visibility:6 or more sm (10+ km)
Ceiling:at least 12,000 feet AGL
Clouds: scattered clouds at 1200 feet AGL
Text:PROB30
Forecast period:0000 to 0900 UTC 21 November 2017
Forecast type:TEMPORARY: The following changes expected for less than half the time period
Visibility: 6 sm ( 9 km)
Ceiling:1400 feet AGL
Clouds: broken clouds at 1400 feet AGL

METAR for:
Text:No data found

TAF for:
Text:No data found